Tiempo atmosférico en la estación meteorológica de Nuñomoral, Cáceres (475 m.)



Fecha
DESCASC
Temp. máxima en grados centígrados (hora)
DESCASC
Temp. mínima en grados centígrados (hora)
DESCASC
Temp. media en grados centígrados
DESCASC
Racha de viento máxima en m/sg (hora)
DESCASC
Velocidad máxima media en intervalos de 10 minutos(hora)
DESCASC
Precipitaciones diarias en mm
DESCASC
Precipitaciones de 00:00 a 06:00 en mm
DESCASC
Precipitaciones de 06:00 a 12:00 en mm
DESCASC
Precipitaciones de 12:00 a 18:00 en mm
DESCASC
Precipitaciones de 18:00 a 24:00 en mm
DESCASC
31-05-2020 30.2 (17:00) 14.6 (06:10) 22.4 13.89 (18:50) 7.22 (19:00) 0 0 0 0 0
30-05-2020 30.4 (16:20) 13.6 (07:20) 22 8.61 (18:40) 4.72 (13:00) 0 0 0 0 0
29-05-2020 30.7 (17:20) 11.6 (07:10) 21.2 9.17 (18:50) 4.44 (18:50) 1.4 0 0 1.4 0
28-05-2020 30.9 (15:30) 11.5 (00:00) 21.2 7.5 (17:40) 4.17 (16:30) 0 0 0 0 0
27-05-2020 31.2 (18:00) 11.6 (00:00) 21.4 5.56 (20:00) 3.33 (20:00) 0 0 0 0 0
26-05-2020 28.7 (14:30) 12.7 (00:00) 20.7 10 (15:30) 5 (15:50) 2.6 0 0 2.6 0
25-05-2020 31.2 (14:30) 13.5 (00:00) 22.4 6.94 (16:50) 4.17 (16:30) 0 0 0 0 0
24-05-2020 30.1 (18:40) 13.1 (00:00) 21.6 6.11 (15:30) 3.06 (13:00) 0 0 0 0 0
23-05-2020 31.3 (17:00) 14.4 (00:00) 22.8 9.17 (02:10) 5 (11:30) 0 0 0 0 0
22-05-2020 30.9 (18:20) 9.2 (00:00) 20 7.5 (15:00) 4.44 (15:10) 0 0 0 0 0
21-05-2020 29.3 (14:10) 12.4 (00:00) 20.8 7.22 (17:20) 4.72 (15:10) 0 0 0 0 0
20-05-2020 31 (16:10) 8.2 (00:00) 19.6 7.5 (15:30) 4.17 (15:30) 0 0 0 0 0
19-05-2020 29.6 (18:10) 9.2 (00:00) 19.4 6.67 (15:10) 3.61 (14:10) 0 0 0 0 0
18-05-2020 28.2 (17:00) 5.3 (00:00) 16.8 5.83 (19:00) 2.78 (18:00) 0 0 0 0 0
17-05-2020 23.8 (18:00) 5.4 (00:00) 14.6 8.33 (13:50) 4.17 (16:50) 0 0 0 0 0
16-05-2020 22 (20:00) 7.5 (00:00) 14.8 7.22 (12:40) 3.33 (12:40) 0 0 0 0 0
15-05-2020 19 (15:40) 11.2 (00:00) 15.1 8.06 (17:10) 4.44 (17:10) 0.4 0 0.4 0 0
14-05-2020 17.8 (18:20) 9 (00:00) 13.4 5.83 (00:50) 2.5 (16:10) 9.6 9.6 0 0 0
13-05-2020 16.9 (17:30) 11.1 (00:00) 14 8.33 (17:20) 3.61 (17:20) 6.2 0.4 5.8 0 0
12-05-2020 16.4 (16:40) 9 (00:00) 12.7 7.5 (17:00) 4.17 (17:00) 1.4 0 0 1.4 0
11-05-2020 -- (--) -- (--) -- -- (--) -- (--) -- -- -- 3.2 3.6
10-05-2020 -- (--) -- (--) -- -- (--) -- (--) -- -- -- -- --
09-05-2020 -- (--) -- (--) -- -- (--) -- (--) -- 0 0 0 --
08-05-2020 24.7 (17:10) 13.8 (00:00) 19.3 11.11 (13:40) 5 (18:00) 1.4 1.4 0 0 0
07-05-2020 26.6 (14:20) 9.4 (00:00) 18 9.17 (15:20) 4.72 (15:20) 0 0 0 0 0
06-05-2020 24.6 (16:40) 6.2 (00:00) 15.4 6.39 (17:30) 3.33 (18:20) 0 0 0 0 0
05-05-2020 22.4 (18:40) 8.1 (00:00) 15.3 8.33 (15:00) 4.17 (15:00) 0 0 0 0 0
04-05-2020 25.6 (13:30) 11.4 (00:00) 18.5 13.06 (16:10) 6.11 (13:40) 0 0 0 0 0
03-05-2020 28.3 (17:00) 8 (00:00) 18.1 11.39 (14:40) 4.72 (13:20) 0 0 0 0 0

Gráficas

Temp. máximas Temp. mínimas Temp. medias Precipitaciones Rachas de viento máximas Velocidades máximas media en intervalos de 10 minutos

Datos horarios

Fecha y hora oficial Temperatura (ºC) Velocidad del viento (km/h) Dirección del viento Racha (km/h) Dirección de racha Precipitación (mm) Presión (hPa) Tendencia (hPa) Humedad (%)
2020-06-01 23:00:00 19.3 0 Calma 6 Nordeste 0 -- -- 66
2020-06-01 22:00:00 21.7 3 Nordeste 19 Sudoeste 0 -- -- 59
2020-06-01 21:00:00 24.2 6 Sur 15 Oeste 0 -- -- 48
2020-06-01 20:00:00 25 3 Sur 22 Oeste 0 -- -- 43
2020-06-01 19:00:00 27.2 6 Sudoeste 24 Sudeste 0 -- -- 38
2020-06-01 18:00:00 26.4 5 Sudeste 25 Este 0 -- -- 37
2020-06-01 17:00:00 27.3 4 Sudeste 30 Este 0 -- -- 39
2020-06-01 16:00:00 26.5 16 Este 31 Sudeste 0 -- -- 38
2020-06-01 15:00:00 26.6 14 Sudeste 31 Sudeste 0 -- -- 41
2020-06-01 14:00:00 26.7 13 Este 30 Este 0 -- -- 40
2020-06-01 13:00:00 25.3 12 Sudeste 27 Este 0 -- -- 44
2020-06-01 12:00:00 24.1 4 Nordeste 22 Oeste 0 -- -- 51
2020-06-01 11:00:00 22.2 14 Sudoeste 24 Oeste 0 -- -- 55
2020-06-01 10:00:00 19.8 6 Este 9 Este 0 -- -- 68
2020-06-01 09:00:00 15.1 3 Este 8 Este 0 -- -- 81
2020-06-01 08:00:00 11.3 3 Este 7 Este 0 -- -- 92
2020-06-01 07:00:00 11 2 Sudeste 6 Este 0 -- -- 90
2020-06-01 06:00:00 11.4 2 Norte 6 Norte 0 -- -- 87
2020-06-01 05:00:00 11.8 2 Norte 7 Nordeste 0 -- -- 86
2020-06-01 04:00:00 12.4 0 Calma 6 Noroeste 0 -- -- 83
2020-06-01 03:00:00 13.6 4 Norte 8 Norte 0 -- -- 79
2020-06-01 02:00:00 14.9 2 Noroeste 8 Norte 0 -- -- 76
2020-06-01 01:00:00 15.7 3 Oeste 9 Oeste 0 -- -- 73
2020-06-01 00:00:00 16.8 0 Calma 9 Oeste 0 -- -- 68
2020-05-31 23:00:00 18.1 4 Oeste 13 Sudoeste 0 -- -- 60
2020-05-31 22:00:00 19.3 11 Sudoeste 27 Sudoeste 0 -- -- 55
2020-05-31 21:00:00 19.5 9 Noroeste 32 Oeste 0 -- -- 58
2020-05-31 20:00:00 19.9 18 Oeste 45 Oeste 0 -- -- 52
2020-05-31 19:00:00 24.3 26 Oeste 50 Oeste 0 -- -- 40
2020-05-31 18:00:00 27.6 10 Oeste 31 Sudoeste 0 -- -- 42
2020-05-31 17:00:00 30.2 8 Sur 26 Sur 0 -- -- 38
2020-05-31 16:00:00 29.1 6 Noroeste 26 Sudeste 0 -- -- 42
2020-05-31 15:00:00 27.7 8 Sudoeste 25 Sudeste 0 -- -- 46
2020-05-31 14:00:00 28 10 Sudeste 25 Este 0 -- -- 43
2020-05-31 13:00:00 26.2 10 Este 16 Este 0 -- -- 44
2020-05-31 12:00:00 25.1 8 Este 15 Este 0 -- -- 53
2020-05-31 11:00:00 22.8 5 Este 12 Sudeste 0 -- -- 58
2020-05-31 10:00:00 20.1 3 Sudeste 7 Este 0 -- -- 67
2020-05-31 09:00:00 17.3 0 Calma 9 Este 0 -- -- 80
2020-05-31 08:00:00 15.3 0 Calma 6 Norte 0 -- -- 85
2020-05-31 07:00:00 14.8 2 Noroeste 6 Norte 0 -- -- 82
2020-05-31 06:00:00 14.7 2 Noroeste 6 Oeste 0 -- -- 82
2020-05-31 05:00:00 14.7 0 Calma 5 Este 0 -- -- 82
2020-05-31 04:00:00 15.8 2 Norte 6 Noroeste 0 -- -- 77
2020-05-31 03:00:00 16.4 5 Noroeste 8 Noroeste 0 -- -- 74
2020-05-31 02:00:00 17.3 0 Calma 10 Sudoeste 0 -- -- 72
2020-05-31 01:00:00 18.6 5 Oeste 9 Oeste 0 -- -- 67
2020-05-31 00:00:00 19.1 5 Norte 8 Norte 0 -- -- 63
2020-05-30 23:00:00 20.7 3 Noroeste 11 Oeste 0 -- -- 58
2020-05-30 22:00:00 23.1 8 Oeste 28 Oeste 0 -- -- 50
2020-05-30 21:00:00 24.5 9 Noroeste 27 Sudoeste 0 -- -- 45
2020-05-30 20:00:00 26 10 Oeste 18 Oeste 0 -- -- 40
2020-05-30 19:00:00 26.7 8 Oeste 31 Noroeste 0 -- -- 40
2020-05-30 18:00:00 28 10 Oeste 24 Noroeste 0 -- -- 43
2020-05-30 17:00:00 29.7 10 Sudoeste 25 Sudoeste 0 -- -- 39
2020-05-30 16:00:00 30 17 Oeste 28 Oeste 0 -- -- 35
2020-05-30 15:00:00 29.6 14 Oeste 26 Oeste 0 -- -- 37
2020-05-30 14:00:00 28.7 15 Sudoeste 31 Oeste 0 -- -- 41
2020-05-30 13:00:00 28.3 17 Oeste 25 Oeste 0 -- -- 44
2020-05-30 12:00:00 27.5 8 Este 19 Este 0 -- -- 53
2020-05-30 11:00:00 24.6 0 Calma 6 Sudeste 0 -- -- 60
2020-05-30 10:00:00 21.1 3 Este 5 Este 0 -- -- 75
2020-05-30 09:00:00 16.8 0 Calma 4 Norte 0 -- -- 91
2020-05-30 08:00:00 13.9 2 Norte 4 Norte 0 -- -- 95
2020-05-30 07:00:00 13.9 3 Norte 5 Norte 0 -- -- 94
2020-05-30 06:00:00 14.3 0 Calma 7 Norte 0 -- -- 93
2020-05-30 05:00:00 15.1 3 Norte 8 Norte 0 -- -- 92
2020-05-30 04:00:00 15.5 3 Norte 9 Oeste 0 -- -- 91
2020-05-30 03:00:00 16.6 6 Noroeste 12 Sudoeste 0 -- -- 88
2020-05-30 02:00:00 17.1 6 Oeste 9 Oeste 0 -- -- 88
2020-05-30 01:00:00 17.9 5 Oeste 12 Sudoeste 0 -- -- 85
2020-05-30 00:00:00 18.6 4 Oeste 11 Noroeste 0 -- -- 85
2020-05-29 23:00:00 19.6 2 Noroeste 11 Sudoeste 0 -- -- 83
2020-05-29 22:00:00 21.1 6 Oeste 14 Sudoeste 0 -- -- 79
2020-05-29 21:00:00 22 10 Sudoeste 15 Sudoeste 0 -- -- 78
2020-05-29 20:00:00 22.7 7 Sudoeste 25 Noroeste 0 -- -- 77
2020-05-29 19:00:00 23.8 15 Oeste 33 Oeste 0 -- -- 58
2020-05-29 18:00:00 29.9 4 Norte 15 Sudoeste 0 -- -- 45
2020-05-29 17:00:00 30.1 6 Oeste 12 Sudoeste 0 -- -- 40
2020-05-29 16:00:00 26.4 2 Noroeste 17 Noroeste 1.4 -- -- 66
2020-05-29 15:00:00 29 12 Oeste 20 Este 0 -- -- 42
2020-05-29 14:00:00 29.2 12 Este 22 Este 0 -- -- 40
2020-05-29 13:00:00 28.1 12 Este 21 Este 0 -- -- 43
2020-05-29 12:00:00 26.6 12 Este 20 Este 0 -- -- 47
2020-05-29 11:00:00 24.4 4 Este 9 Este 0 -- -- 53
2020-05-29 10:00:00 21.1 0 Calma 4 Sudeste 0 -- -- 64
2020-05-29 09:00:00 15.8 0 Calma 4 Norte 0 -- -- 87
2020-05-29 08:00:00 11.8 0 Calma 3 Norte 0 -- -- 94
2020-05-29 07:00:00 11.7 0 Calma 5 Norte 0 -- -- 92
2020-05-29 06:00:00 12.5 0 Calma 4 Noroeste 0 -- -- 91
2020-05-29 05:00:00 13 3 Norte 4 Norte 0 -- -- 89
2020-05-29 04:00:00 13.8 0 Calma 4 Noroeste 0 -- -- 87
2020-05-29 03:00:00 14.6 0 Calma 5 Norte 0 -- -- 86
2020-05-29 02:00:00 15.7 3 Norte 6 Norte 0 -- -- 82
2020-05-29 01:00:00 16.9 2 Noroeste 6 Noroeste 0 -- -- 79
2020-05-29 00:00:00 18.2 3 Noroeste 6 Oeste 0 -- -- 73
2020-05-28 23:00:00 19.7 2 Noroeste 5 Oeste 0 -- -- 69
2020-05-28 22:00:00 22 2 Oeste 9 Nordeste 0 -- -- 62
2020-05-28 21:00:00 25.2 6 Norte 15 Oeste 0 -- -- 52
2020-05-28 20:00:00 28.5 9 Oeste 17 Sudoeste 0 -- -- 41
2020-05-28 19:00:00 28.2 12 Sudoeste 22 Sudoeste 0 -- -- 40
2020-05-28 18:00:00 29.5 12 Oeste 27 Oeste 0 -- -- 39
2020-05-28 17:00:00 29.7 13 Sudoeste 25 Sudoeste 0 -- -- 38
2020-05-28 16:00:00 30.2 12 Sudoeste 25 Sudoeste 0 -- -- 38
2020-05-28 15:00:00 30 9 Sur 21 Sudeste 0 -- -- 36
2020-05-28 14:00:00 29 10 Este 22 Sudeste 0 -- -- 39
2020-05-28 13:00:00 27.5 11 Este 19 Este 0 -- -- 41
2020-05-28 12:00:00 25.8 8 Este 14 Este 0 -- -- 46
2020-05-28 11:00:00 23.2 5 Este 9 Sudeste 0 -- -- 50
2020-05-28 10:00:00 20 5 Este 8 Este 0 -- -- 68
2020-05-28 09:00:00 15.1 0 Calma 2 Norte 0 -- -- 89
2020-05-28 08:00:00 11.5 0 Calma 4 Noroeste 0 -- -- 94
2020-05-28 07:00:00 11.7 0 Calma 4 Noroeste 0 -- -- 93
2020-05-28 06:00:00 12.1 2 Noroeste 5 Norte 0 -- -- 92
2020-05-28 05:00:00 12.6 0 Calma 6 Norte 0 -- -- 90
2020-05-28 04:00:00 13.3 3 Norte 5 Norte 0 -- -- 90
2020-05-28 03:00:00 14.1 2 Norte 5 Norte 0 -- -- 86
2020-05-28 02:00:00 14.8 0 Calma 4 Norte 0 -- -- 84
2020-05-28 01:00:00 16 4 Norte 6 Norte 0 -- -- 80
2020-05-28 00:00:00 17.4 4 Noroeste 7 Norte 0 -- -- 76
2020-05-27 23:00:00 19.4 4 Norte 6 Norte 0 -- -- 69
2020-05-27 22:00:00 22.3 4 Noroeste 9 Norte 0 -- -- 60
2020-05-27 21:00:00 26.1 6 Norte 14 Oeste 0 -- -- 49
2020-05-27 20:00:00 29.3 12 Sudoeste 20 Sudoeste 0 -- -- 37
2020-05-27 19:00:00 28.8 5 Oeste 14 Sudeste 0 -- -- 43
2020-05-27 18:00:00 31.2 4 Sudeste 15 Oeste 0 -- -- 35
2020-05-27 17:00:00 30.5 10 Oeste 16 Sudoeste 0 -- -- 37
2020-05-27 16:00:00 30.7 5 Sudoeste 19 Sur 0 -- -- 36
2020-05-27 15:00:00 29.7 4 Noroeste 16 Oeste 0 -- -- 37
2020-05-27 14:00:00 29 3 Norte 16 Este 0 -- -- 40
2020-05-27 13:00:00 27.9 5 Sudeste 16 Este 0 -- -- 49
2020-05-27 12:00:00 25.7 9 Este 14 Este 0 -- -- 52
2020-05-27 11:00:00 23.1 5 Este 9 Este 0 -- -- 61
2020-05-27 10:00:00 19.3 0 Calma 4 Este 0 -- -- 76
2020-05-27 09:00:00 15.2 0 Calma 5 Norte 0 -- -- 98
2020-05-27 08:00:00 12 3 Norte 5 Oeste 0 -- -- 97
2020-05-27 07:00:00 11.6 0 Calma 4 Norte 0 -- -- 96
2020-05-27 06:00:00 12.1 3 Norte 6 Norte 0 -- -- 96
2020-05-27 05:00:00 12.3 3 Noroeste 5 Norte 0 -- -- 96
2020-05-27 04:00:00 12.8 2 Norte 6 Norte 0 -- -- 95
2020-05-27 03:00:00 13.4 3 Norte 9 Oeste 0 -- -- 95
2020-05-27 02:00:00 13.5 0 Calma 6 Norte 0 -- -- 93
2020-05-27 01:00:00 14.4 4 Norte 8 Norte 0 -- -- 93
2020-05-27 00:00:00 15.1 3 Norte 7 Norte 0 -- -- 91
2020-05-26 23:00:00 16.3 4 Noroeste 7 Norte 0 -- -- 90
2020-05-26 22:00:00 17.9 3 Noroeste 11 Oeste 0 -- -- 87
2020-05-26 21:00:00 19.8 3 Noroeste 8 Oeste 0 -- -- 81
2020-05-26 20:00:00 21.4 4 Oeste 9 Oeste 0 -- -- 78
2020-05-26 19:00:00 17.7 5 Oeste 21 Oeste 0 -- -- 88
2020-05-26 18:00:00 17.3 16 Oeste 30 Oeste 0.2 -- -- 80
2020-05-26 17:00:00 19 13 Sudoeste 23 Sudoeste 2 -- -- 75
2020-05-26 16:00:00 21.5 17 Oeste 36 Sudoeste 0.4 -- -- 74
2020-05-26 15:00:00 27.7 8 Sudeste 19 Este 0 -- -- 48
2020-05-26 14:00:00 28.2 6 Este 19 Sudeste 0 -- -- 45
2020-05-26 13:00:00 26.7 5 Sur 12 Oeste 0 -- -- 50
2020-05-26 12:00:00 24.6 7 Este 11 Este 0 -- -- 56
2020-05-26 11:00:00 21.9 2 Nordeste 11 Sudeste 0 -- -- 64
2020-05-26 10:00:00 19.5 3 Este 9 Este 0 -- -- 70
2020-05-26 09:00:00 16.3 0 Calma 4 Norte 0 -- -- 84
2020-05-26 08:00:00 12.7 0 Calma 5 Noroeste 0 -- -- 92
2020-05-26 07:00:00 12.9 0 Calma 4 Norte 0 -- -- 90
2020-05-26 06:00:00 13.6 3 Norte 5 Noroeste 0 -- -- 87
2020-05-26 05:00:00 14.1 4 Norte 6 Noroeste 0 -- -- 86
2020-05-26 04:00:00 14.8 0 Calma 6 Noroeste 0 -- -- 82
2020-05-26 03:00:00 16 3 Norte 8 Norte 0 -- -- 77
2020-05-26 02:00:00 17.8 4 Noroeste 13 Sudoeste 0 -- -- 72
2020-05-26 01:00:00 19.4 5 Noroeste 13 Oeste 0 -- -- 65
2020-05-26 00:00:00 19.1 6 Oeste 13 Oeste 0 -- -- 69
2020-05-25 23:00:00 19.5 3 Norte 8 Oeste 0 -- -- 68
2020-05-25 22:00:00 22 4 Norte 8 Noroeste 0 -- -- 62
2020-05-25 21:00:00 25.7 2 Norte 9 Norte 0 -- -- 53
2020-05-25 20:00:00 29.7 3 Noroeste 8 Norte 0 -- -- 42
2020-05-25 19:00:00 30.5 5 Sudeste 8 Sudeste 0 -- -- 39
2020-05-25 18:00:00 29.4 3 Oeste 18 Noroeste 0 -- -- 42
2020-05-25 17:00:00 27.1 10 Oeste 25 Oeste 0 -- -- 50
2020-05-25 16:00:00 28.9 5 Sudoeste 11 Este 0 -- -- 44
2020-05-25 15:00:00 29.6 4 Sudeste 19 Este 0 -- -- 41
2020-05-25 14:00:00 30.4 6 Sudeste 18 Este 0 -- -- 42
2020-05-25 13:00:00 29.1 6 Sur 16 Este 0 -- -- 42
2020-05-25 12:00:00 27.4 10 Este 17 Este 0 -- -- 50
2020-05-25 11:00:00 25.1 4 Este 8 Este 0 -- -- 57
2020-05-25 10:00:00 21.5 2 Este 5 Este 0 -- -- 70
2020-05-25 09:00:00 16.5 0 Calma 2 Norte 0 -- -- 89
2020-05-25 08:00:00 13.6 2 Sudeste 4 Norte 0 -- -- 94
2020-05-25 07:00:00 13.6 0 Calma 4 Norte 0 -- -- 93
2020-05-25 06:00:00 14.3 3 Norte 5 Norte 0 -- -- 92
2020-05-25 05:00:00 14.6 3 Norte 4 Norte 0 -- -- 91
2020-05-25 04:00:00 15.2 0 Calma 5 Norte 0 -- -- 89
2020-05-25 03:00:00 16.1 2 Noroeste 5 Norte 0 -- -- 88
2020-05-25 02:00:00 16.8 0 Calma 6 Norte 0 -- -- 85
2020-05-25 01:00:00 17.8 4 Norte 8 Noroeste 0 -- -- 82
2020-05-25 00:00:00 18.8 4 Noroeste 6 Norte 0 -- -- 79
2020-05-24 23:00:00 20.1 0 Calma 6 Norte 0 -- -- 75
2020-05-24 22:00:00 22.6 3 Norte 5 Norte 0 -- -- 69
2020-05-24 21:00:00 25.3 0 Calma 5 Oeste 0 -- -- 61
2020-05-24 20:00:00 27.8 0 Calma 11 Sudeste 0 -- -- 57
2020-05-24 19:00:00 29.6 6 Este 17 Sudeste 0 -- -- 43
2020-05-24 18:00:00 29.9 6 Este 13 Este 0 -- -- 40
2020-05-24 17:00:00 28.9 4 Este 14 Este 0 -- -- 43
2020-05-24 16:00:00 29 5 Este 22 Este 0 -- -- 45
2020-05-24 15:00:00 28.8 10 Este 18 Sudeste 0 -- -- 45
2020-05-24 14:00:00 26.9 8 Este 16 Sudeste 0 -- -- 50
2020-05-24 13:00:00 26.1 11 Este 18 Este 0 -- -- 52
2020-05-24 12:00:00 24.8 6 Este 12 Este 0 -- -- 56
2020-05-24 11:00:00 22.1 8 Este 12 Este 0 -- -- 61
2020-05-24 10:00:00 19.8 3 Este 9 Este 0 -- -- 68
2020-05-24 09:00:00 16.7 0 Calma 4 Norte 0 -- -- 85
2020-05-24 08:00:00 13.2 2 Norte 5 Noroeste 0 -- -- 92
2020-05-24 07:00:00 13.3 2 Norte 4 Norte 0 -- -- 92
2020-05-24 06:00:00 13.7 0 Calma 4 Norte 0 -- -- 90
2020-05-24 05:00:00 14.7 2 Noroeste 5 Norte 0 -- -- 88
2020-05-24 04:00:00 15.4 3 Norte 4 Noroeste 0 -- -- 86
2020-05-24 03:00:00 16.6 3 Norte 5 Noroeste 0 -- -- 83
2020-05-24 02:00:00 17.6 4 Norte 6 Norte 0 -- -- 79
2020-05-24 01:00:00 18.4 3 Noroeste 8 Noroeste 0 -- -- 75
2020-05-24 00:00:00 19.5 5 Norte 19 Este 0 -- -- 71
2020-05-23 23:00:00 21 4 Norte 9 Norte 0 -- -- 67
2020-05-23 22:00:00 24.3 5 Oeste 10 Oeste 0 -- -- 56
2020-05-23 21:00:00 27 4 Oeste 17 Oeste 0 -- -- 49
2020-05-23 20:00:00 29.6 12 Oeste 24 Oeste 0 -- -- 38
2020-05-23 19:00:00 30.4 11 Oeste 26 Oeste 0 -- -- 39
2020-05-23 18:00:00 30.8 10 Oeste 22 Oeste 0 -- -- 37
2020-05-23 17:00:00 31.3 9 Noroeste 22 Oeste 0 -- -- 38
2020-05-23 16:00:00 30.6 8 Noroeste 26 Oeste 0 -- -- 39
2020-05-23 15:00:00 29.7 8 Noroeste 23 Sudoeste 0 -- -- 39
2020-05-23 14:00:00 28.2 13 Oeste 26 Sudoeste 0 -- -- 42
2020-05-23 13:00:00 26.6 10 Oeste 26 Oeste 0 -- -- 48
2020-05-23 12:00:00 24.3 17 Oeste 32 Oeste 0 -- -- 60
2020-05-23 11:00:00 23.8 14 Sudoeste 24 Oeste 0 -- -- 56
2020-05-23 10:00:00 21.5 3 Noroeste 5 Norte 0 -- -- 63
2020-05-23 09:00:00 17.5 3 Nordeste 9 Norte 0 -- -- 77
2020-05-23 08:00:00 14.6 0 Calma 8 Norte 0 -- -- 85
2020-05-23 07:00:00 16.2 5 Norte 18 Sudoeste 0 -- -- 80
2020-05-23 06:00:00 18.2 9 Oeste 30 Noroeste 0 -- -- 76
2020-05-23 05:00:00 15.8 3 Norte 13 Sudoeste 0 -- -- 82
2020-05-23 04:00:00 17.6 10 Oeste 23 Sudoeste 0 -- -- 79
2020-05-23 03:00:00 20.2 13 Sudoeste 33 Oeste 0 -- -- 70
2020-05-23 02:00:00 21.2 10 Sudoeste 32 Sudoeste 0 -- -- 68
2020-05-23 01:00:00 21.7 15 Sudoeste 30 Sudoeste 0 -- -- 68
2020-05-23 00:00:00 16.1 3 Norte 10 Norte 0 -- -- 68
2020-05-22 23:00:00 17.8 4 Norte 9 Noroeste 0 -- -- 59
2020-05-22 22:00:00 21 2 Oeste 8 Norte 0 -- -- 54
2020-05-22 21:00:00 24.8 2 Noroeste 14 Oeste 0 -- -- 41
2020-05-22 20:00:00 29.3 9 Oeste 18 Oeste 0 -- -- 26
2020-05-22 19:00:00 30.1 7 Sudoeste 19 Sudoeste 0 -- -- 26
2020-05-22 18:00:00 30.8 6 Sur 20 Sudeste 0 -- -- 22
2020-05-22 17:00:00 30.6 8 Sur 21 Sur 0 -- -- 20
2020-05-22 16:00:00 30 12 Sudeste 27 Este 0 -- -- 20
2020-05-22 15:00:00 29.3 15 Este 27 Este 0 -- -- 30
2020-05-22 14:00:00 28.7 9 Este 18 Este 0 -- -- 28
2020-05-22 13:00:00 27.7 7 Este 19 Nordeste 0 -- -- 34
2020-05-22 12:00:00 25.8 11 Este 17 Este 0 -- -- 44
2020-05-22 11:00:00 23.4 3 Este 7 Sudeste 0 -- -- 54
2020-05-22 10:00:00 18.4 0 Calma 4 Sudeste 0 -- -- 68
2020-05-22 09:00:00 13.7 0 Calma 3 Norte 0 -- -- 90
2020-05-22 08:00:00 9.4 0 Calma 3 Norte 0 -- -- 94
2020-05-22 07:00:00 9.3 0 Calma 3 Norte 0 -- -- 92
2020-05-22 06:00:00 9.8 0 Calma 3 Norte 0 -- -- 92
2020-05-22 05:00:00 10.5 0 Calma 5 Norte 0 -- -- 89
2020-05-22 04:00:00 11.2 3 Norte 5 Norte 0 -- -- 88
2020-05-22 03:00:00 12 2 Norte 6 Norte 0 -- -- 85
2020-05-22 02:00:00 13.3 3 Norte 7 Noroeste 0 -- -- 80
2020-05-22 01:00:00 14.1 2 Norte 5 Norte 0 -- -- 79
2020-05-22 00:00:00 15.5 4 Norte 6 Norte 0 -- -- 74
2020-05-21 23:00:00 17.5 4 Norte 6 Norte 0 -- -- 67
2020-05-21 22:00:00 21.1 0 Calma 12 Norte 0 -- -- 58
2020-05-21 21:00:00 24.1 6 Norte 18 Oeste 0 -- -- 48
2020-05-21 20:00:00 28.6 9 Sudoeste 19 Oeste 0 -- -- 34
2020-05-21 19:00:00 29.3 6 Sur 24 Sudoeste 0 -- -- 33
2020-05-21 18:00:00 28.8 11 Sudoeste 26 Oeste 0 -- -- 30
2020-05-21 17:00:00 29 9 Oeste 23 Oeste 0 -- -- 27
2020-05-21 16:00:00 29.1 8 Sudoeste -- -- -- -- -- 32
2020-05-21 15:00:00 -- -- -- -- -- -- -- -- --
2020-05-21 14:00:00 -- 8 Sudeste 19 Sudeste -- -- -- --
2020-05-21 13:00:00 28.4 8 Sur 20 Este 0 -- -- 43
2020-05-21 12:00:00 26.1 8 Este -- -- 0 -- -- 55
2020-05-21 11:00:00 23.6 3 Este 8 Este 0 -- -- 62
2020-05-21 10:00:00 -- -- -- -- -- -- -- -- --
2020-05-21 09:00:00 -- -- -- -- -- -- -- -- --
2020-05-21 08:00:00 -- -- -- -- -- -- -- -- --
2020-05-21 07:00:00 -- -- -- -- -- -- -- -- --
2020-05-21 06:00:00 -- -- -- -- -- -- -- -- --
2020-05-21 05:00:00 -- -- -- -- -- -- -- -- --
2020-05-21 04:00:00 -- -- -- -- -- -- -- -- --
2020-05-21 03:00:00 -- -- -- -- -- -- -- -- --
2020-05-21 02:00:00 18.4 8 Sudoeste 17 Sudoeste 0 -- -- 78
2020-05-21 01:00:00 19.6 4 Noroeste 13 Oeste 0 -- -- 75
2020-05-21 00:00:00 20.5 6 Noroeste 10 Oeste 0 -- -- 73
2020-05-20 23:00:00 19.1 3 Norte 13 Noroeste 0 -- -- 68
2020-05-20 22:00:00 21.7 2 Noroeste 8 Norte 0 -- -- 60
2020-05-20 21:00:00 25.2 5 Norte 15 Oeste 0 -- -- 49
2020-05-20 20:00:00 28.9 7 Oeste 23 Oeste 0 -- -- 36
2020-05-20 19:00:00 29.4 13 Oeste 25 Sudoeste 0 -- -- 34
2020-05-20 18:00:00 29.4 11 Sudoeste 24 Sudoeste 0 -- -- 34
2020-05-20 17:00:00 28.8 4 Este 25 Oeste 0 -- -- 40
2020-05-20 16:00:00 -- -- -- -- -- -- -- -- --
2020-05-20 15:00:00 -- -- -- -- -- -- -- -- --
2020-05-20 14:00:00 -- -- -- -- -- -- -- -- --
2020-05-20 13:00:00 -- -- -- -- -- -- -- -- --
2020-05-20 12:00:00 -- -- -- -- -- -- -- -- --
2020-05-20 11:00:00 -- -- -- -- -- -- -- -- --
2020-05-20 10:00:00 -- -- -- -- -- -- -- -- --
2020-05-20 09:00:00 -- -- -- -- -- -- -- -- --
2020-05-20 08:00:00 -- -- -- -- -- -- -- -- --
2020-05-20 07:00:00 -- -- -- -- -- -- -- -- --
2020-05-20 06:00:00 -- -- -- -- -- -- -- -- --
2020-05-20 05:00:00 -- -- -- -- -- -- -- -- --
2020-05-20 04:00:00 -- -- -- -- -- -- -- -- --
2020-05-20 03:00:00 -- -- -- -- -- -- -- -- --
2020-05-20 02:00:00 -- -- -- -- -- -- -- -- --
2020-05-20 01:00:00 -- -- -- -- -- -- -- -- --
2020-05-20 00:00:00 -- -- -- -- -- -- -- -- --
2020-05-19 23:00:00 -- -- -- -- -- -- -- -- --
2020-05-19 22:00:00 -- -- -- -- -- -- -- -- --
2020-05-19 21:00:00 -- -- -- -- -- -- -- -- --
2020-05-19 20:00:00 -- -- -- -- -- -- -- -- --
2020-05-19 19:00:00 -- -- -- -- -- -- -- -- --
2020-05-19 18:00:00 -- -- -- -- -- -- -- -- --
2020-05-19 17:00:00 -- -- -- -- -- -- -- -- --
2020-05-19 16:00:00 -- -- -- -- -- -- -- -- --
2020-05-19 15:00:00 -- -- -- -- -- -- -- -- --
2020-05-19 14:00:00 -- -- -- -- -- -- -- -- --
2020-05-19 13:00:00 -- -- -- -- -- -- -- -- --
2020-05-19 12:00:00 -- -- -- -- -- -- -- -- --
2020-05-19 11:00:00 -- -- -- -- -- -- -- -- --
2020-05-19 10:00:00 -- -- -- -- -- -- -- -- --
2020-05-19 09:00:00 -- -- -- -- -- -- -- -- --
2020-05-19 08:00:00 -- -- -- -- -- -- -- -- --
2020-05-19 07:00:00 -- -- -- -- -- -- -- -- --
2020-05-19 06:00:00 -- -- -- -- -- -- -- -- --
2020-05-19 05:00:00 -- -- -- -- -- -- -- -- --
2020-05-19 04:00:00 -- -- -- -- -- -- -- -- --
2020-05-19 03:00:00 -- -- -- -- -- -- -- -- --
2020-05-19 02:00:00 -- -- -- -- -- -- -- -- --
2020-05-19 01:00:00 -- -- -- -- -- -- -- -- --
2020-05-19 00:00:00 -- -- -- -- -- -- -- -- --
2020-05-18 23:00:00 -- -- -- -- -- -- -- -- --
2020-05-18 22:00:00 -- -- -- -- -- -- -- -- --
2020-05-18 21:00:00 -- -- -- -- -- -- -- -- --
2020-05-18 20:00:00 -- -- -- -- -- -- -- -- --
2020-05-18 19:00:00 -- -- -- -- -- -- -- -- --
2020-05-18 18:00:00 -- -- -- -- -- -- -- -- --
2020-05-18 17:00:00 -- -- -- -- -- -- -- -- --
2020-05-18 16:00:00 -- -- -- -- -- -- -- -- --
2020-05-18 15:00:00 -- -- -- -- -- -- -- -- --
2020-05-18 14:00:00 -- -- -- -- -- -- -- -- --
2020-05-18 13:00:00 -- -- -- -- -- -- -- -- --
2020-05-18 12:00:00 -- -- -- -- -- -- -- -- --
2020-05-18 11:00:00 -- -- -- -- -- -- -- -- --
2020-05-18 10:00:00 -- -- -- -- -- -- -- -- --
2020-05-18 09:00:00 -- -- -- -- -- -- -- -- --
2020-05-18 08:00:00 -- -- -- -- -- -- -- -- --
2020-05-18 07:00:00 -- -- -- -- -- -- -- -- --
2020-05-18 06:00:00 -- -- -- -- -- -- -- -- --
2020-05-18 05:00:00 -- -- -- -- -- -- -- -- --
2020-05-18 04:00:00 -- -- -- -- -- -- -- -- --
2020-05-18 03:00:00 -- -- -- -- -- -- -- -- --
2020-05-18 02:00:00 -- -- -- -- -- -- -- -- --
2020-05-18 01:00:00 -- -- -- -- -- -- -- -- --
2020-05-18 00:00:00 -- -- -- -- -- -- -- -- --
2020-05-17 23:00:00 -- -- -- -- -- -- -- -- --
2020-05-17 22:00:00 -- -- -- -- -- -- -- -- --
2020-05-17 21:00:00 -- -- -- -- -- -- -- -- --
2020-05-17 20:00:00 -- -- -- -- -- -- -- -- --
2020-05-17 19:00:00 -- -- -- -- -- -- -- -- --
2020-05-17 18:00:00 -- -- -- -- -- -- -- -- --
2020-05-17 17:00:00 -- -- -- -- -- -- -- -- --
2020-05-17 16:00:00 -- -- -- -- -- -- -- -- --
2020-05-17 15:00:00 -- -- -- -- -- -- -- -- --
2020-05-17 14:00:00 -- -- -- -- -- -- -- -- --
2020-05-17 13:00:00 -- -- -- -- -- -- -- -- --
2020-05-17 12:00:00 -- -- -- -- -- -- -- -- --
2020-05-17 11:00:00 -- -- -- -- -- -- -- -- --
2020-05-17 10:00:00 -- -- -- -- -- -- -- -- --
2020-05-17 09:00:00 -- -- -- -- -- -- -- -- --
2020-05-17 08:00:00 -- -- -- -- -- -- -- -- --
2020-05-17 07:00:00 -- -- -- -- -- -- -- -- --
2020-05-17 06:00:00 -- -- -- -- -- -- -- -- --
2020-05-17 05:00:00 -- -- -- -- -- -- -- -- --
2020-05-17 04:00:00 -- -- -- -- -- -- -- -- --
2020-05-17 03:00:00 -- -- -- -- -- -- -- -- --
2020-05-17 02:00:00 -- -- -- -- -- -- -- -- --
2020-05-17 01:00:00 -- -- -- -- -- -- -- -- --
2020-05-17 00:00:00 -- -- -- -- -- -- -- -- --
2020-05-16 23:00:00 -- -- -- -- -- -- -- -- --
2020-05-16 22:00:00 -- -- -- -- -- -- -- -- --
2020-05-16 21:00:00 -- -- -- -- -- -- -- -- --
2020-05-16 20:00:00 -- -- -- -- -- -- -- -- --
2020-05-16 19:00:00 -- -- -- -- -- -- -- -- --
2020-05-16 18:00:00 -- -- -- -- -- -- -- -- --
2020-05-16 17:00:00 -- -- -- -- -- -- -- -- --
2020-05-16 16:00:00 -- -- -- -- -- -- -- -- --
2020-05-16 15:00:00 -- -- -- -- -- -- -- -- --
2020-05-16 14:00:00 -- -- -- -- -- -- -- -- --
2020-05-16 13:00:00 -- -- -- -- -- -- -- -- --
2020-05-16 12:00:00 -- -- -- -- -- -- -- -- --
2020-05-16 11:00:00 -- -- -- -- -- -- -- -- --
2020-05-16 10:00:00 -- -- -- -- -- -- -- -- --
2020-05-16 09:00:00 -- -- -- -- -- -- -- -- --
2020-05-16 08:00:00 -- -- -- -- -- -- -- -- --
2020-05-16 07:00:00 7.9 3 Noroeste 5 Norte 0 -- -- 93
2020-05-16 06:00:00 9.1 0 Calma 6 Norte 0 -- -- 90
2020-05-16 05:00:00 10.5 2 Nordeste 10 Norte 0 -- -- 86
2020-05-16 04:00:00 11 5 Nordeste 10 Nordeste 0 -- -- 85
2020-05-16 03:00:00 11.5 4 Sudeste 12 Sudeste 0 -- -- 82
2020-05-16 02:00:00 12.3 2 Sudeste 16 Este 0 -- -- 78
2020-05-16 01:00:00 11.4 4 Nordeste 9 Este 0 -- -- 86
2020-05-16 00:00:00 11.7 0 Calma 8 Nordeste 0 -- -- 87
2020-05-15 23:00:00 12.7 5 Oeste 9 Sudoeste 0 -- -- 82
2020-05-15 22:00:00 13.1 0 Calma 8 Sudoeste 0 -- -- 81
2020-05-15 21:00:00 15 4 Noroeste 9 Nordeste 0 -- -- 72
2020-05-15 20:00:00 17.4 4 Nordeste 12 Nordeste 0 -- -- 55
2020-05-15 19:00:00 17.6 4 Sudeste 21 Este 0 -- -- 59
2020-05-15 18:00:00 17.1 4 Nordeste 29 Este 0 -- -- 57
2020-05-15 17:00:00 18.4 14 Este 24 Este 0 -- -- 53
2020-05-15 16:00:00 18.9 7 Sudeste 26 Sudeste 0 -- -- 51
2020-05-15 15:00:00 18.1 11 Este 24 Este 0 -- -- 52
2020-05-15 14:00:00 18 3 Nordeste 20 Nordeste 0 -- -- 54
2020-05-15 13:00:00 18.1 7 Este 20 Este 0 -- -- 58
2020-05-15 12:00:00 15.9 4 Noroeste 9 Oeste 0 -- -- 69
2020-05-15 11:00:00 14.6 2 Noroeste 10 Este 0 -- -- 76
2020-05-15 10:00:00 13.9 7 Este 13 Este 0 -- -- 84
2020-05-15 09:00:00 12 4 Este 6 Este 0 -- -- 95
2020-05-15 08:00:00 11.4 0 Calma 3 Este 0 -- -- 95
2020-05-15 07:00:00 11.3 0 Calma 4 Oeste 0.4 -- -- 95
2020-05-15 06:00:00 11.2 0 Calma 5 Norte 0 -- -- 93
2020-05-15 05:00:00 11.3 2 Norte 4 Norte 0 -- -- 93
2020-05-15 04:00:00 11.3 0 Calma 5 Este 0 -- -- 91
2020-05-15 03:00:00 11.7 0 Calma 6 Sudeste 0 -- -- 90
2020-05-15 02:00:00 12.1 0 Calma 7 Nordeste 0 -- -- 88
2020-05-15 01:00:00 12.4 3 Nordeste 5 Este 0 -- -- 87
2020-05-15 00:00:00 12.7 0 Calma 6 Norte 0 -- -- 86
2020-05-14 23:00:00 13.1 3 Norte 6 Norte 0 -- -- 82
2020-05-14 22:00:00 14 0 Calma 10 Noroeste 0 -- -- 79
2020-05-14 21:00:00 15.4 4 Sudoeste 13 Sudoeste 0 -- -- 64
2020-05-14 20:00:00 16.2 0 Calma 10 Este 0 -- -- 63
2020-05-14 19:00:00 17.4 3 Este 12 Oeste 0 -- -- 56
2020-05-14 18:00:00 16.9 3 Sudeste 9 Este 0 -- -- 55
2020-05-14 17:00:00 16.2 4 Este 15 Este 0 -- -- 56
2020-05-14 16:00:00 15.3 8 Sudeste 21 Este 0 -- -- 59
2020-05-14 15:00:00 14.6 4 Nordeste 15 Este 0 -- -- 62
2020-05-14 14:00:00 13.5 3 Sur 12 Este 0 -- -- 70
2020-05-14 13:00:00 12.3 6 Este 13 Este 0 -- -- 73
2020-05-14 12:00:00 11.5 3 Este 8 Este 0 -- -- 86
2020-05-14 11:00:00 10.2 0 Calma 8 Este 0 -- -- 94
2020-05-14 10:00:00 9.6 2 Nordeste 10 Este 0 -- -- 95
2020-05-14 09:00:00 9.2 2 Sudeste 8 Norte 0 -- -- 95
2020-05-14 08:00:00 9 3 Nordeste 6 Nordeste 0 -- -- 95
2020-05-14 07:00:00 9 3 Nordeste 9 Norte 0 -- -- 95
2020-05-14 06:00:00 9.3 3 Este 6 Este 0.2 -- -- 94
2020-05-14 05:00:00 10 2 Sur 17 Sudoeste 1 -- -- 94
2020-05-14 04:00:00 10.7 4 Nordeste 13 Este 4 -- -- 92
2020-05-14 03:00:00 11.2 4 Nordeste 6 Norte 4.4 -- -- 93
2020-05-14 02:00:00 12.1 3 Norte 7 Este 0 -- -- 88
2020-05-14 01:00:00 12.7 3 Sudeste 21 Oeste 0 -- -- 84
2020-05-14 00:00:00 12.2 0 Calma 6 Norte 0 -- -- 89
2020-05-13 23:00:00 12.8 4 Norte 17 Sur 0 -- -- 86
2020-05-13 22:00:00 14 6 Sudoeste 26 Oeste 0 -- -- 73
2020-05-13 21:00:00 14.8 3 Sur 13 Sudoeste 0 -- -- 71
2020-05-13 20:00:00 16 0 Calma 16 Este 0 -- -- 74
2020-05-13 19:00:00 16.3 6 Este 21 Este 0 -- -- 61
2020-05-13 18:00:00 16.4 6 Nordeste 30 Este 0 -- -- 63
2020-05-13 17:00:00 16.5 4 Sur 22 Este 0 -- -- 62
2020-05-13 16:00:00 15.4 6 Oeste 13 Este 0 -- -- 70
2020-05-13 15:00:00 15.4 7 Este 23 Sudeste 0 -- -- 76
2020-05-13 14:00:00 14.2 4 Noroeste 12 Nordeste 0 -- -- 78
2020-05-13 13:00:00 12.6 8 Este 19 Sur 0 -- -- 89
2020-05-13 12:00:00 12.1 5 Oeste 14 Sudoeste 1.2 -- -- 88
2020-05-13 11:00:00 12.1 5 Este 12 Este 0.8 -- -- 95
2020-05-13 10:00:00 11.7 3 Norte 6 Nordeste 3.4 -- -- 95
2020-05-13 09:00:00 11.5 0 Calma 8 Sudeste 0.4 -- -- 95
2020-05-13 08:00:00 11.2 0 Calma 10 Este 0 -- -- 96
2020-05-13 07:00:00 11.2 2 Nordeste 5 Nordeste 0 -- -- 96
2020-05-13 06:00:00 11.1 0 Calma 3 Este 0 -- -- 96
2020-05-13 05:00:00 11.1 0 Calma 3 Este 0.4 -- -- 95
2020-05-13 04:00:00 11.3 0 Calma 3 Noroeste 0 -- -- 93
2020-05-13 03:00:00 11.4 0 Calma 3 Norte 0 -- -- 93
2020-05-13 02:00:00 11.4 0 Calma 2 Norte 0 -- -- 93
2020-05-13 01:00:00 11.4 0 Calma 4 Nordeste 0 -- -- 93
2020-05-13 00:00:00 11.6 0 Calma 3 Norte 0 -- -- 92
2020-05-12 23:00:00 12.1 0 Calma 7 Norte 0 -- -- 89
2020-05-12 22:00:00 12.7 0 Calma 6 Este 0 -- -- 86
2020-05-12 21:00:00 13.1 4 Este 17 Sudeste 0 -- -- 83
2020-05-12 20:00:00 13.6 8 Este 14 Este 0 -- -- 79
2020-05-12 19:00:00 13.8 3 Nordeste 14 Nordeste 0 -- -- 78
2020-05-12 18:00:00 14.1 6 Norte 22 Oeste 0 -- -- 79
2020-05-12 17:00:00 15.7 15 Sudeste 27 Este 0 -- -- 76
2020-05-12 16:00:00 15.9 3 Este 6 Este 0 -- -- 74
2020-05-12 15:00:00 14.8 0 Calma 6 Sur 0 -- -- 76
2020-05-12 14:00:00 13.7 3 Norte 12 Este 1.2 -- -- 90
2020-05-12 13:00:00 14 6 Este 18 Este 0.2 -- -- 88
2020-05-12 12:00:00 14.4 2 Nordeste 8 Este 0 -- -- 85
2020-05-12 11:00:00 12.9 3 Este 11 Este 0 -- -- 94
2020-05-12 10:00:00 11.5 0 Calma 3 Sur 0 -- -- 96
2020-05-12 09:00:00 10.4 0 Calma 12 Sudoeste 0 -- -- 98
2020-05-12 08:00:00 9.7 6 Sudoeste 12 Sudoeste 0 -- -- 97
2020-05-12 07:00:00 9.5 6 Oeste 12 Oeste 0 -- -- 98
2020-05-12 06:00:00 9.2 3 Nordeste 6 Oeste 0 -- -- 96
2020-05-12 05:00:00 10.2 2 Noroeste 7 Oeste 0 -- -- 96
2020-05-12 04:00:00 10.7 0 Calma 4 Noroeste 0 -- -- 96
2020-05-12 03:00:00 11.2 3 Oeste 5 Sudoeste 0 -- -- 96
2020-05-12 02:00:00 11.7 0 Calma 5 Este 0 -- -- 95
2020-05-12 01:00:00 12.5 0 Calma 4 Oeste 0 -- -- 95
2020-05-12 00:00:00 12.8 0 Calma 4 Norte 0 -- -- 95
2020-05-11 23:00:00 13.1 0 Calma 6 Norte 0 -- -- 95
2020-05-11 22:00:00 13.3 4 Nordeste 12 Norte 0.4 -- -- 94
2020-05-11 21:00:00 14.2 4 Norte 11 Nordeste 2.8 -- -- 93
2020-05-11 20:00:00 15.3 8 Este 17 Este 0.2 -- -- 88
2020-05-11 19:00:00 15.3 6 Este 20 Este 0.2 -- -- 86
2020-05-11 18:00:00 15.8 9 Este 17 Este 0.2 -- -- 83
2020-05-11 17:00:00 15.6 5 Este 26 Este 0.4 -- -- 81
2020-05-11 16:00:00 15.9 10 Este 17 Este 0.2 -- -- 80
2020-05-11 15:00:00 15.6 4 Oeste 18 Sudeste 0.2 -- -- 84
2020-05-11 14:00:00 14 8 Este 15 Este 1.6 -- -- 91
2020-05-11 13:00:00 13.5 4 Este 15 Este 0.6 -- -- 92
2020-05-11 12:00:00 13.4 5 Nordeste 19 Este 0 -- -- 91
2020-05-11 11:00:00 12.6 2 Nordeste 24 Este 0.8 -- -- 94
2020-05-11 10:00:00 12 10 Este -- -- -- -- -- 94
2020-05-11 09:00:00 -- -- -- -- -- -- -- -- --
2020-05-11 08:00:00 -- -- -- -- -- -- -- -- --
2020-05-11 07:00:00 -- -- -- -- -- -- -- -- --
2020-05-11 06:00:00 -- -- -- -- -- -- -- -- --
2020-05-11 05:00:00 -- -- -- -- -- -- -- -- --
2020-05-11 04:00:00 -- -- -- -- -- -- -- -- --
2020-05-11 03:00:00 -- -- -- -- -- -- -- -- --
2020-05-11 02:00:00 -- -- -- -- -- -- -- -- --
2020-05-11 01:00:00 -- -- -- -- -- -- -- -- --
2020-05-11 00:00:00 -- -- -- -- -- -- -- -- --
2020-05-10 23:00:00 -- -- -- -- -- -- -- -- --
2020-05-10 22:00:00 -- -- -- -- -- -- -- -- --
2020-05-10 21:00:00 -- -- -- -- -- -- -- -- --
2020-05-10 20:00:00 -- -- -- -- -- -- -- -- --
2020-05-10 19:00:00 -- -- -- -- -- -- -- -- --
2020-05-10 18:00:00 -- -- -- -- -- -- -- -- --
2020-05-10 17:00:00 -- -- -- -- -- -- -- -- --
2020-05-10 16:00:00 -- -- -- -- -- -- -- -- --
2020-05-10 15:00:00 -- -- -- -- -- -- -- -- --
2020-05-10 14:00:00 -- -- -- -- -- -- -- -- --
2020-05-10 13:00:00 -- -- -- -- -- -- -- -- --
2020-05-10 12:00:00 -- -- -- -- -- -- -- -- --
2020-05-10 11:00:00 -- -- -- -- -- -- -- -- --
2020-05-10 10:00:00 -- -- -- -- -- -- -- -- --
2020-05-10 09:00:00 -- -- -- -- -- -- -- -- --
2020-05-10 08:00:00 -- -- -- -- -- -- -- -- --
2020-05-10 07:00:00 -- -- -- -- -- -- -- -- --
2020-05-10 06:00:00 -- -- -- -- -- -- -- -- --
2020-05-10 05:00:00 -- -- -- -- -- -- -- -- --
2020-05-10 04:00:00 -- -- -- -- -- -- -- -- --
2020-05-10 03:00:00 -- -- -- -- -- -- -- -- --
2020-05-10 02:00:00 -- -- -- -- -- -- -- -- --
2020-05-10 01:00:00 -- -- -- -- -- -- -- -- --
2020-05-10 00:00:00 -- -- -- -- -- -- -- -- --
2020-05-09 23:00:00 12.7 2 Norte 13 Sudoeste 0.4 -- -- 89
2020-05-09 22:00:00 14.6 9 Sur 22 Sudoeste 1.4 -- -- 77
2020-05-09 21:00:00 15.1 7 Oeste 16 Oeste 0 -- -- 69
2020-05-09 20:00:00 15.5 13 Oeste 39 Oeste 0 -- -- 61
2020-05-09 19:00:00 17.4 14 Sudoeste 34 Oeste 0 -- -- 56
2020-05-09 18:00:00 18.2 16 Oeste 36 Sudoeste 0 -- -- 50
2020-05-09 17:00:00 19.5 12 Oeste 42 Oeste 0 -- -- 46
2020-05-09 16:00:00 19.6 5 Oeste 33 Oeste 0 -- -- 52
2020-05-09 15:00:00 17.7 16 Oeste 37 Oeste 0 -- -- 58
2020-05-09 14:00:00 17.7 14 Sudoeste 35 Oeste 0 -- -- 57
2020-05-09 13:00:00 16.1 7 Oeste 28 Oeste 0 -- -- 65
2020-05-09 12:00:00 16.6 6 Norte 21 Oeste 0 -- -- 65
2020-05-09 11:00:00 16.2 5 Este 15 Sudeste 0 -- -- 68
2020-05-09 10:00:00 15.3 3 Sudeste 21 Sudeste 0 -- -- 72
2020-05-09 09:00:00 14 11 Este 22 Este 0 -- -- 84
2020-05-09 08:00:00 13.4 9 Este 14 Este 0 -- -- 85
2020-05-09 07:00:00 13.8 0 Calma 15 Sudoeste 0 -- -- 83
2020-05-09 06:00:00 13.7 3 Sudeste 19 Oeste 0 -- -- 89
2020-05-09 05:00:00 12.4 0 Calma 5 Sudeste 0 -- -- 93
2020-05-09 04:00:00 11.9 3 Sudeste 5 Este 0 -- -- 92
2020-05-09 03:00:00 12.3 0 Calma 4 Sudeste 0 -- -- 89
2020-05-09 02:00:00 13.5 0 Calma 4 Norte 0 -- -- 86
2020-05-09 01:00:00 14.1 0 Calma 5 Oeste 0 -- -- 83
2020-05-09 00:00:00 15.4 3 Noroeste 5 Oeste 0 -- -- 80
2020-05-08 23:00:00 16.6 0 Calma 5 Norte 0 -- -- 77
2020-05-08 22:00:00 18.5 2 Norte 8 Norte 0 -- -- 68
2020-05-08 21:00:00 21.8 3 Oeste 18 Oeste 0 -- -- 54
2020-05-08 20:00:00 23.7 8 Oeste 22 Sudoeste 0 -- -- 47
2020-05-08 19:00:00 23.4 7 Sudoeste 27 Oeste 0 -- -- 48
2020-05-08 18:00:00 23.6 18 Oeste 37 Oeste 0 -- -- 49
2020-05-08 17:00:00 24.3 14 Oeste 27 Sudoeste 0 -- -- 49
2020-05-08 16:00:00 24.5 5 Sudeste 26 Este 0 -- -- 54
2020-05-08 15:00:00 23.4 7 Nordeste 26 Oeste 0 -- -- 50
2020-05-08 14:00:00 23.3 9 Este 40 Sudeste 0 -- -- 50
2020-05-08 13:00:00 23 8 Sudeste 25 Este 0 -- -- 56
2020-05-08 12:00:00 21.1 7 Oeste 17 Sudoeste 0 -- -- 63
2020-05-08 11:00:00 20.9 5 Este 12 Este 0 -- -- 61
2020-05-08 10:00:00 18.3 2 Sudeste 4 Este 0 -- -- 82
2020-05-08 09:00:00 15.7 0 Calma 8 Oeste 0 -- -- 97
2020-05-08 08:00:00 14.3 2 Oeste 5 Oeste 0 -- -- 95
2020-05-08 07:00:00 14.7 0 Calma 5 Noroeste 0 -- -- 94
2020-05-08 06:00:00 15.1 2 Sur 7 Norte 0.2 -- -- 95
2020-05-08 05:00:00 15.2 3 Nordeste 9 Oeste 0.8 -- -- 94
2020-05-08 04:00:00 14.6 3 Noroeste 7 Noroeste 0.4 -- -- 94
2020-05-08 03:00:00 13.9 2 Este 5 Sudeste 0 -- -- 89
2020-05-08 02:00:00 15.1 0 Calma 5 Este 0 -- -- 86
2020-05-08 01:00:00 16.4 0 Calma 5 Norte 0 -- -- 83
2020-05-08 00:00:00 17.7 0 Calma 7 Norte 0 -- -- 77
2020-05-07 23:00:00 19.1 3 Noroeste 6 Noroeste 0 -- -- 72
2020-05-07 22:00:00 21.3 0 Calma 8 Norte 0 -- -- 64
2020-05-07 21:00:00 24.3 5 Sudoeste 22 Sudoeste 0 -- -- 51
2020-05-07 20:00:00 26.2 9 Sudoeste 27 Oeste 0 -- -- 47
2020-05-07 19:00:00 25.5 10 Oeste 24 Oeste 0 -- -- 48
2020-05-07 18:00:00 24.9 3 Sur 14 Este 0 -- -- 47
2020-05-07 17:00:00 22.7 5 Norte 14 Sudoeste 0 -- -- 58
2020-05-07 16:00:00 23.6 9 Sudoeste 33 Sudoeste 0 -- -- 57
2020-05-07 15:00:00 25.2 11 Sudoeste 29 Este 0 -- -- 42
2020-05-07 14:00:00 26.4 11 Este 25 Este 0 -- -- 41
2020-05-07 13:00:00 24.5 13 Este 21 Este 0 -- -- 44
2020-05-07 12:00:00 21.2 7 Este 17 Este 0 -- -- 53
2020-05-07 11:00:00 17.1 5 Este 7 Este 0 -- -- 68
2020-05-07 10:00:00 13.6 0 Calma 3 Oeste 0 -- -- 83
2020-05-07 09:00:00 10.9 0 Calma 4 Sudeste 0 -- -- 92
2020-05-07 08:00:00 9.8 2 Norte 5 Norte 0 -- -- 93
2020-05-07 07:00:00 9.5 2 Norte 4 Norte 0 -- -- 92
2020-05-07 06:00:00 9.9 2 Norte 5 Norte 0 -- -- 91
2020-05-07 05:00:00 10.5 2 Noroeste 6 Este 0 -- -- 89
2020-05-07 04:00:00 11.1 2 Nordeste 8 Norte 0 -- -- 87
2020-05-07 03:00:00 11.8 4 Nordeste 8 Oeste 0 -- -- 86
2020-05-07 02:00:00 12.6 5 Norte 9 Oeste 0 -- -- 83
2020-05-07 01:00:00 12.7 0 Calma 6 Norte 0 -- -- 82
2020-05-07 00:00:00 13.8 3 Noroeste 5 Norte 0 -- -- 78
2020-05-06 23:00:00 14.9 3 Nordeste 6 Norte 0 -- -- 75
2020-05-06 22:00:00 17.3 3 Noroeste 7 Norte 0 -- -- 67
2020-05-06 21:00:00 20.8 0 Calma 11 Este 0 -- -- 56
2020-05-06 20:00:00 23.2 6 Este 15 Este 0 -- -- 43
2020-05-06 19:00:00 23.6 10 Este 20 Este 0 -- -- 41
2020-05-06 18:00:00 24.2 10 Sudeste 23 Este 0 -- -- 39
2020-05-06 17:00:00 24.1 10 Sudeste 21 Sudeste 0 -- -- 39
2020-05-06 16:00:00 23.4 10 Este 22 Este 0 -- -- 37
2020-05-06 15:00:00 23.1 3 Este 15 Nordeste 0 -- -- 42
2020-05-06 14:00:00 21.7 3 Sudoeste 14 Sudeste 0 -- -- 44
2020-05-06 13:00:00 21 4 Norte 15 Este 0 -- -- 49
2020-05-06 12:00:00 19.3 5 Sur 12 Sudeste 0 -- -- 59
2020-05-06 11:00:00 17.1 5 Sudoeste 14 Oeste 0 -- -- 65
2020-05-06 10:00:00 13 0 Calma 4 Nordeste 0 -- -- 86
2020-05-06 09:00:00 9.3 0 Calma 4 Norte 0 -- -- 98
2020-05-06 08:00:00 6.4 0 Calma 2 Sudeste 0 -- -- 95
2020-05-06 07:00:00 6.3 2 Este 4 Sudeste 0 -- -- 94
2020-05-06 06:00:00 7 2 Norte 3 Norte 0 -- -- 94
2020-05-06 05:00:00 7.2 0 Calma 3 Norte 0 -- -- 93
2020-05-06 04:00:00 7.6 0 Calma 4 Norte 0 -- -- 92
2020-05-06 03:00:00 8.4 0 Calma 4 Norte 0 -- -- 90
2020-05-06 02:00:00 9.2 2 Norte 5 Norte 0 -- -- 89
2020-05-06 01:00:00 10.2 3 Norte 5 Norte 0 -- -- 86
2020-05-06 00:00:00 11.4 2 Norte 6 Sudoeste 0 -- -- 81
2020-05-05 23:00:00 12.9 0 Calma 4 Noroeste 0 -- -- 77
2020-05-05 22:00:00 15.5 0 Calma 9 Norte 0 -- -- 69
2020-05-05 21:00:00 18.6 6 Oeste 16 Sudoeste 0 -- -- 54
2020-05-05 20:00:00 20.8 9 Sudoeste 29 Oeste 0 -- -- 46
2020-05-05 19:00:00 22.3 6 Sudoeste 17 Sur 0 -- -- 45
2020-05-05 18:00:00 21.3 6 Sudoeste 19 Sudoeste 0 -- -- 47
2020-05-05 17:00:00 21.5 13 Sur 24 Sur 0 -- -- 43
2020-05-05 16:00:00 21.7 13 Sudoeste 27 Oeste 0 -- -- 40
2020-05-05 15:00:00 20.4 15 Este 30 Este 0 -- -- 46
2020-05-05 14:00:00 19.5 9 Este 24 Este 0 -- -- 54
2020-05-05 13:00:00 18.3 13 Este 26 Este 0 -- -- 57
2020-05-05 12:00:00 17.2 13 Este 23 Este 0 -- -- 61
2020-05-05 11:00:00 15.7 11 Este 19 Este 0 -- -- 72
2020-05-05 10:00:00 13.1 6 Este 13 Este 0 -- -- 86
2020-05-05 09:00:00 9.7 0 Calma 4 Sudeste 0 -- -- 97
2020-05-05 08:00:00 8.3 0 Calma 3 Este 0 -- -- 95
2020-05-05 07:00:00 8.2 0 Calma 4 Norte 0 -- -- 94
2020-05-05 06:00:00 9 0 Calma 4 Norte 0 -- -- 93
2020-05-05 05:00:00 9.4 0 Calma 4 Noroeste 0 -- -- 93
2020-05-05 04:00:00 9.8 0 Calma 4 Norte -- -- -- 92
2020-05-05 03:00:00 10.2 2 Noroeste 6 Este 0 -- -- 91
2020-05-05 02:00:00 10.8 4 Nordeste 6 Norte 0 -- -- 90
2020-05-05 01:00:00 11.7 0 Calma 5 Nordeste 0 -- -- 86
2020-05-05 00:00:00 12.3 0 Calma 6 Este 0 -- -- 82
2020-05-04 23:00:00 13.8 3 Este 12 Este 0 -- -- 74
2020-05-04 22:00:00 17.4 3 Norte 28 Oeste 0 -- -- 56
2020-05-04 21:00:00 19.5 8 Oeste 34 Sudoeste 0 -- -- 52
2020-05-04 20:00:00 21.4 10 Sur 34 Oeste 0 -- -- 50
2020-05-04 19:00:00 22.2 14 Oeste 32 Oeste 0 -- -- 47
2020-05-04 18:00:00 21.8 9 Sur 37 Sudoeste 0 -- -- 55
2020-05-04 17:00:00 22.1 9 Sudoeste 47 Sudoeste 0 -- -- 57
2020-05-04 16:00:00 23 21 Oeste 46 Sudoeste 0 -- -- 42
2020-05-04 15:00:00 22.2 12 Sur 33 Oeste 0 -- -- 57
2020-05-04 14:00:00 23.7 21 Oeste 42 Oeste 0 -- -- 47
2020-05-04 13:00:00 25.4 11 Sudoeste 40 Oeste 0 -- -- 42
2020-05-04 12:00:00 25.1 12 Oeste 40 Oeste 0 -- -- 40
2020-05-04 11:00:00 20 6 Norte 13 Sudoeste 0 -- -- 74
2020-05-04 10:00:00 17.3 4 Nordeste 10 Sudoeste 0 -- -- 80
2020-05-04 09:00:00 14.1 4 Nordeste 10 Sudeste 0 -- -- 91
2020-05-04 08:00:00 12.5 0 Calma 10 Este 0 -- -- 95
2020-05-04 07:00:00 11.8 3 Norte 8 Norte 0 -- -- 95
2020-05-04 06:00:00 11.6 2 Norte 5 Norte 0 -- -- 94
2020-05-04 05:00:00 11.6 0 Calma 4 Norte 0 -- -- 92
2020-05-04 04:00:00 12.3 0 Calma 5 Sudeste 0 -- -- 91
2020-05-04 03:00:00 13.2 0 Calma 6 Norte 0 -- -- 90
2020-05-04 02:00:00 14 3 Norte 6 Norte 0 -- -- 87
2020-05-04 01:00:00 14.9 2 Norte 5 Noroeste 0 -- -- 85
2020-05-04 00:00:00 16.4 3 Norte 6 Noroeste 0 -- -- 80
2020-05-03 23:00:00 18.3 3 Noroeste 6 Oeste 0 -- -- 74
2020-05-03 22:00:00 20.9 2 Noroeste 8 Norte 0 -- -- 67
2020-05-03 21:00:00 24 4 Noroeste 10 Este 0 -- -- 56
2020-05-03 20:00:00 27.2 5 Norte 17 Este 0 -- -- 46
2020-05-03 19:00:00 27.5 10 Este 24 Este 0 -- -- 42
2020-05-03 18:00:00 28 6 Nordeste 27 Oeste 0 -- -- 43
2020-05-03 17:00:00 28.3 8 Oeste 40 Este 0 -- -- 38
2020-05-03 16:00:00 27.7 11 Oeste 33 Sudeste 0 -- -- 36
2020-05-03 15:00:00 27.1 5 Sur 41 Oeste 0 -- -- 40
2020-05-03 14:00:00 26.3 15 Este 37 Sudeste 0 -- -- 44
2020-05-03 13:00:00 26 9 Este 20 Este 0 -- -- 46
2020-05-03 12:00:00 22.8 2 Sudoeste 10 Este 0 -- -- 60
2020-05-03 11:00:00 20 4 Este 7 Este 0 -- -- 73
2020-05-03 10:00:00 15.5 4 Este 6 Este 0 -- -- 88
2020-05-03 09:00:00 10.7 3 Este 5 Sudeste 0 -- -- 99
2020-05-03 08:00:00 8.1 0 Calma 3 Norte 0 -- -- 96
2020-05-03 07:00:00 8.3 0 Calma 5 Norte 0 -- -- 96
2020-05-03 06:00:00 8.7 2 Nordeste 5 Sur 0 -- -- 95
2020-05-03 05:00:00 9.2 0 Calma 4 Norte 0 -- -- 94
2020-05-03 04:00:00 10 2 Noroeste 5 Norte 0 -- -- 94
2020-05-03 03:00:00 10.9 2 Noroeste 6 Norte 0 -- -- 94
2020-05-03 02:00:00 11.5 2 Norte 5 Norte 0 -- -- 92
2020-05-03 01:00:00 12.2 3 Norte 6 Noroeste 0 -- -- 90
2020-05-03 00:00:00 13.6 3 Noroeste 6 Oeste 0 -- -- 87